sensor_id;sensor_type;location;lat;lon;timestamp;temperature;humidity
63017;DHT22;50274;45.640;11.756;2022-12-18T00:00:41;6.60;72.10
63017;DHT22;50274;45.640;11.756;2022-12-18T00:03:07;6.60;72.20
63017;DHT22;50274;45.640;11.756;2022-12-18T00:05:33;6.50;72.30
63017;DHT22;50274;45.640;11.756;2022-12-18T00:07:59;6.50;72.40
63017;DHT22;50274;45.640;11.756;2022-12-18T00:10:25;6.50;72.50
63017;DHT22;50274;45.640;11.756;2022-12-18T00:12:51;6.50;72.50
63017;DHT22;50274;45.640;11.756;2022-12-18T00:15:16;6.50;72.60
63017;DHT22;50274;45.640;11.756;2022-12-18T00:17:42;6.50;72.70
63017;DHT22;50274;45.640;11.756;2022-12-18T00:20:08;6.40;72.90
63017;DHT22;50274;45.640;11.756;2022-12-18T00:22:34;6.40;73.00
63017;DHT22;50274;45.640;11.756;2022-12-18T00:25:00;6.40;73.10
63017;DHT22;50274;45.640;11.756;2022-12-18T00:27:26;6.40;73.20
63017;DHT22;50274;45.640;11.756;2022-12-18T00:29:52;6.40;73.20
63017;DHT22;50274;45.640;11.756;2022-12-18T00:32:18;6.30;73.40
63017;DHT22;50274;45.640;11.756;2022-12-18T00:34:43;6.30;73.40
63017;DHT22;50274;45.640;11.756;2022-12-18T00:37:09;6.30;73.50
63017;DHT22;50274;45.640;11.756;2022-12-18T00:39:35;6.30;73.50
63017;DHT22;50274;45.640;11.756;2022-12-18T00:42:01;6.20;73.50
63017;DHT22;50274;45.640;11.756;2022-12-18T00:44:45;6.20;73.50
63017;DHT22;50274;45.640;11.756;2022-12-18T00:47:11;6.10;73.60
63017;DHT22;50274;45.640;11.756;2022-12-18T00:49:37;6.20;73.50
63017;DHT22;50274;45.640;11.756;2022-12-18T00:52:03;6.10;73.00
63017;DHT22;50274;45.640;11.756;2022-12-18T00:54:30;6.00;73.40
63017;DHT22;50274;45.640;11.756;2022-12-18T00:56:55;6.00;73.50
63017;DHT22;50274;45.640;11.756;2022-12-18T00:59:21;6.00;73.60
63017;DHT22;50274;45.640;11.756;2022-12-18T01:01:47;6.00;73.70
63017;DHT22;50274;45.640;11.756;2022-12-18T01:04:13;6.00;73.70
63017;DHT22;50274;45.640;11.756;2022-12-18T01:06:40;6.00;73.70
63017;DHT22;50274;45.640;11.756;2022-12-18T01:09:06;6.00;73.80
63017;DHT22;50274;45.640;11.756;2022-12-18T01:11:31;5.90;73.80
63017;DHT22;50274;45.640;11.756;2022-12-18T01:13:57;5.90;73.80
63017;DHT22;50274;45.640;11.756;2022-12-18T01:16:25;5.90;73.90
63017;DHT22;50274;45.640;11.756;2022-12-18T01:18:52;5.90;73.80
63017;DHT22;50274;45.640;11.756;2022-12-18T01:21:19;5.90;73.90
63017;DHT22;50274;45.640;11.756;2022-12-18T01:23:46;5.80;73.70
63017;DHT22;50274;45.640;11.756;2022-12-18T01:26:14;5.80;73.80
63017;DHT22;50274;45.640;11.756;2022-12-18T01:28:41;5.70;73.80
63017;DHT22;50274;45.640;11.756;2022-12-18T01:31:25;5.70;73.70
63017;DHT22;50274;45.640;11.756;2022-12-18T01:33:52;5.70;73.70
63017;DHT22;50274;45.640;11.756;2022-12-18T01:36:23;5.60;73.80
63017;DHT22;50274;45.640;11.756;2022-12-18T01:38:50;5.60;73.50
63017;DHT22;50274;45.640;11.756;2022-12-18T01:41:19;5.60;73.40
63017;DHT22;50274;45.640;11.756;2022-12-18T01:43:54;5.50;73.40
63017;DHT22;50274;45.640;11.756;2022-12-18T01:46:22;5.50;73.40
63017;DHT22;50274;45.640;11.756;2022-12-18T01:48:52;5.60;73.20
63017;DHT22;50274;45.640;11.756;2022-12-18T01:51:19;5.50;73.30
63017;DHT22;50274;45.640;11.756;2022-12-18T01:53:47;5.50;73.20
63017;DHT22;50274;45.640;11.756;2022-12-18T01:56:16;5.50;73.10
63017;DHT22;50274;45.640;11.756;2022-12-18T02:01:22;5.50;73.10
63017;DHT22;50274;45.640;11.756;2022-12-18T02:03:49;5.50;73.30
63017;DHT22;50274;45.640;11.756;2022-12-18T02:06:35;5.50;73.30
63017;DHT22;50274;45.640;11.756;2022-12-18T02:09:09;5.50;73.40
63017;DHT22;50274;45.640;11.756;2022-12-18T02:12:06;5.50;73.60
63017;DHT22;50274;45.640;11.756;2022-12-18T02:15:06;5.50;73.20
63017;DHT22;50274;45.640;11.756;2022-12-18T02:17:38;5.40;73.60
63017;DHT22;50274;45.640;11.756;2022-12-18T02:20:36;5.40;73.80
63017;DHT22;50274;45.640;11.756;2022-12-18T02:26:04;5.40;74.10
63017;DHT22;50274;45.640;11.756;2022-12-18T02:28:36;5.30;74.10
63017;DHT22;50274;45.640;11.756;2022-12-18T02:31:06;5.30;74.10
63017;DHT22;50274;45.640;11.756;2022-12-18T02:33:34;5.40;74.20
63017;DHT22;50274;45.640;11.756;2022-12-18T02:36:01;5.30;74.20
63017;DHT22;50274;45.640;11.756;2022-12-18T02:38:29;5.30;74.20
63017;DHT22;50274;45.640;11.756;2022-12-18T02:40:56;5.30;74.30
63017;DHT22;50274;45.640;11.756;2022-12-18T02:43:22;5.40;74.40
63017;DHT22;50274;45.640;11.756;2022-12-18T02:45:54;5.30;74.40
63017;DHT22;50274;45.640;11.756;2022-12-18T02:48:31;5.30;74.50
63017;DHT22;50274;45.640;11.756;2022-12-18T02:51:31;5.20;74.50
63017;DHT22;50274;45.640;11.756;2022-12-18T02:55:11;5.20;74.60
63017;DHT22;50274;45.640;11.756;2022-12-18T02:58:14;5.20;74.60
63017;DHT22;50274;45.640;11.756;2022-12-18T03:00:21;5.20;74.70
63017;DHT22;50274;45.640;11.756;2022-12-18T03:06:00;5.00;74.80
63017;DHT22;50274;45.640;11.756;2022-12-18T03:08:33;5.00;75.00
63017;DHT22;50274;45.640;11.756;2022-12-18T03:11:07;5.00;75.20
63017;DHT22;50274;45.640;11.756;2022-12-18T03:13:40;5.00;75.20
63017;DHT22;50274;45.640;11.756;2022-12-18T03:16:10;4.90;75.20
63017;DHT22;50274;45.640;11.756;2022-12-18T03:18:49;4.90;75.30
63017;DHT22;50274;45.640;11.756;2022-12-18T03:21:19;4.80;75.50
63017;DHT22;50274;45.640;11.756;2022-12-18T03:23:49;4.80;75.50
63017;DHT22;50274;45.640;11.756;2022-12-18T03:26:19;4.80;75.60
63017;DHT22;50274;45.640;11.756;2022-12-18T03:28:54;4.80;75.60
63017;DHT22;50274;45.640;11.756;2022-12-18T03:31:23;4.80;75.70
63017;DHT22;50274;45.640;11.756;2022-12-18T03:33:58;4.80;75.70
63017;DHT22;50274;45.640;11.756;2022-12-18T03:36:25;4.80;75.70
63017;DHT22;50274;45.640;11.756;2022-12-18T03:38:52;4.80;75.70
63017;DHT22;50274;45.640;11.756;2022-12-18T03:41:39;4.80;75.70
63017;DHT22;50274;45.640;11.756;2022-12-18T03:44:29;4.80;75.80
63017;DHT22;50274;45.640;11.756;2022-12-18T03:47:27;4.80;75.70
63017;DHT22;50274;45.640;11.756;2022-12-18T03:55:09;4.70;75.70
63017;DHT22;50274;45.640;11.756;2022-12-18T03:57:37;4.70;75.60
63017;DHT22;50274;45.640;11.756;2022-12-18T04:00:09;4.70;75.70
63017;DHT22;50274;45.640;11.756;2022-12-18T04:02:38;4.60;75.80
63017;DHT22;50274;45.640;11.756;2022-12-18T04:05:07;4.60;75.70
63017;DHT22;50274;45.640;11.756;2022-12-18T04:07:34;4.50;75.70
63017;DHT22;50274;45.640;11.756;2022-12-18T04:10:02;4.50;75.80
63017;DHT22;50274;45.640;11.756;2022-12-18T04:12:29;4.50;75.80
63017;DHT22;50274;45.640;11.756;2022-12-18T04:14:55;4.40;75.80
63017;DHT22;50274;45.640;11.756;2022-12-18T04:17:22;4.40;75.90
63017;DHT22;50274;45.640;11.756;2022-12-18T04:19:48;4.40;76.00
63017;DHT22;50274;45.640;11.756;2022-12-18T04:22:13;4.40;76.10
63017;DHT22;50274;45.640;11.756;2022-12-18T04:24:39;4.40;75.90
63017;DHT22;50274;45.640;11.756;2022-12-18T04:27:05;4.30;76.10
63017;DHT22;50274;45.640;11.756;2022-12-18T04:29:31;4.30;76.10
63017;DHT22;50274;45.640;11.756;2022-12-18T04:31:57;4.30;76.20
63017;DHT22;50274;45.640;11.756;2022-12-18T04:34:23;4.30;76.20
63017;DHT22;50274;45.640;11.756;2022-12-18T04:36:49;4.30;76.30
63017;DHT22;50274;45.640;11.756;2022-12-18T04:39:15;4.30;76.30
63017;DHT22;50274;45.640;11.756;2022-12-18T04:41:41;4.30;76.30
63017;DHT22;50274;45.640;11.756;2022-12-18T04:44:06;4.30;76.30
63017;DHT22;50274;45.640;11.756;2022-12-18T04:46:32;4.30;76.30
63017;DHT22;50274;45.640;11.756;2022-12-18T04:48:58;4.20;76.30
63017;DHT22;50274;45.640;11.756;2022-12-18T04:51:24;4.20;76.30
63017;DHT22;50274;45.640;11.756;2022-12-18T04:53:50;4.20;76.20
63017;DHT22;50274;45.640;11.756;2022-12-18T04:56:16;4.20;76.20
63017;DHT22;50274;45.640;11.756;2022-12-18T04:58:43;4.10;76.20
63017;DHT22;50274;45.640;11.756;2022-12-18T05:01:11;4.20;76.20
63017;DHT22;50274;45.640;11.756;2022-12-18T05:03:38;4.20;76.20
63017;DHT22;50274;45.640;11.756;2022-12-18T05:06:05;4.10;76.20
63017;DHT22;50274;45.640;11.756;2022-12-18T05:08:31;4.10;76.30
63017;DHT22;50274;45.640;11.756;2022-12-18T05:11:09;4.10;76.20
63017;DHT22;50274;45.640;11.756;2022-12-18T05:13:36;4.10;76.10
63017;DHT22;50274;45.640;11.756;2022-12-18T05:16:04;4.00;76.20
63017;DHT22;50274;45.640;11.756;2022-12-18T05:18:30;4.00;76.20
63017;DHT22;50274;45.640;11.756;2022-12-18T05:20:56;4.00;76.20
63017;DHT22;50274;45.640;11.756;2022-12-18T05:23:23;4.00;76.30
63017;DHT22;50274;45.640;11.756;2022-12-18T05:25:54;4.00;76.30
63017;DHT22;50274;45.640;11.756;2022-12-18T05:28:21;4.10;76.40
63017;DHT22;50274;45.640;11.756;2022-12-18T05:30:52;4.00;76.40
63017;DHT22;50274;45.640;11.756;2022-12-18T05:33:19;4.10;76.30
63017;DHT22;50274;45.640;11.756;2022-12-18T05:35:53;4.10;76.30
63017;DHT22;50274;45.640;11.756;2022-12-18T05:38:21;4.10;76.40
63017;DHT22;50274;45.640;11.756;2022-12-18T05:40:50;4.10;76.40
63017;DHT22;50274;45.640;11.756;2022-12-18T05:43:16;4.10;76.40
63017;DHT22;50274;45.640;11.756;2022-12-18T05:45:42;4.20;76.40
63017;DHT22;50274;45.640;11.756;2022-12-18T05:48:09;4.20;76.40
63017;DHT22;50274;45.640;11.756;2022-12-18T05:50:36;4.20;76.40
63017;DHT22;50274;45.640;11.756;2022-12-18T05:53:03;4.20;76.40
63017;DHT22;50274;45.640;11.756;2022-12-18T05:55:29;4.20;76.30
63017;DHT22;50274;45.640;11.756;2022-12-18T05:57:54;4.20;76.30
63017;DHT22;50274;45.640;11.756;2022-12-18T06:00:20;4.20;76.30
63017;DHT22;50274;45.640;11.756;2022-12-18T06:02:47;4.20;76.30
63017;DHT22;50274;45.640;11.756;2022-12-18T06:05:13;4.20;76.20
63017;DHT22;50274;45.640;11.756;2022-12-18T06:07:38;4.20;76.20
63017;DHT22;50274;45.640;11.756;2022-12-18T06:10:05;4.20;76.20
63017;DHT22;50274;45.640;11.756;2022-12-18T06:12:31;4.20;76.20
63017;DHT22;50274;45.640;11.756;2022-12-18T06:14:59;4.20;76.20
63017;DHT22;50274;45.640;11.756;2022-12-18T06:17:30;4.10;76.30
63017;DHT22;50274;45.640;11.756;2022-12-18T06:19:56;4.10;76.30
63017;DHT22;50274;45.640;11.756;2022-12-18T06:22:22;4.10;76.30
63017;DHT22;50274;45.640;11.756;2022-12-18T06:24:48;4.10;76.30
63017;DHT22;50274;45.640;11.756;2022-12-18T06:27:14;4.10;76.30
63017;DHT22;50274;45.640;11.756;2022-12-18T06:29:39;4.00;76.30
63017;DHT22;50274;45.640;11.756;2022-12-18T06:32:06;4.00;76.30
63017;DHT22;50274;45.640;11.756;2022-12-18T06:34:32;4.00;76.20
63017;DHT22;50274;45.640;11.756;2022-12-18T06:36:58;4.00;76.20
63017;DHT22;50274;45.640;11.756;2022-12-18T06:39:26;3.90;76.20
63017;DHT22;50274;45.640;11.756;2022-12-18T06:41:52;3.90;76.20
63017;DHT22;50274;45.640;11.756;2022-12-18T06:44:18;3.90;76.30
63017;DHT22;50274;45.640;11.756;2022-12-18T06:46:44;3.90;76.30
63017;DHT22;50274;45.640;11.756;2022-12-18T06:49:10;3.90;76.40
63017;DHT22;50274;45.640;11.756;2022-12-18T06:51:36;3.80;76.30
63017;DHT22;50274;45.640;11.756;2022-12-18T06:54:02;3.80;76.40
63017;DHT22;50274;45.640;11.756;2022-12-18T06:56:28;3.80;76.50
63017;DHT22;50274;45.640;11.756;2022-12-18T06:58:54;3.80;76.50
63017;DHT22;50274;45.640;11.756;2022-12-18T07:01:21;3.80;76.60
63017;DHT22;50274;45.640;11.756;2022-12-18T07:03:51;3.80;76.60
63017;DHT22;50274;45.640;11.756;2022-12-18T07:06:19;3.80;76.60
63017;DHT22;50274;45.640;11.756;2022-12-18T07:08:46;3.70;76.70
63017;DHT22;50274;45.640;11.756;2022-12-18T07:11:13;3.80;76.60
63017;DHT22;50274;45.640;11.756;2022-12-18T07:13:39;3.80;76.60
63017;DHT22;50274;45.640;11.756;2022-12-18T07:16:07;3.70;76.60
63017;DHT22;50274;45.640;11.756;2022-12-18T07:18:33;3.70;76.70
63017;DHT22;50274;45.640;11.756;2022-12-18T07:21:03;3.70;76.70
63017;DHT22;50274;45.640;11.756;2022-12-18T07:23:29;3.70;76.70
63017;DHT22;50274;45.640;11.756;2022-12-18T07:25:55;3.70;76.70
63017;DHT22;50274;45.640;11.756;2022-12-18T07:28:21;3.70;76.70
63017;DHT22;50274;45.640;11.756;2022-12-18T07:30:47;3.70;76.70
63017;DHT22;50274;45.640;11.756;2022-12-18T07:33:12;3.70;76.80
63017;DHT22;50274;45.640;11.756;2022-12-18T07:35:38;3.70;76.80
63017;DHT22;50274;45.640;11.756;2022-12-18T07:38:04;3.70;76.80
63017;DHT22;50274;45.640;11.756;2022-12-18T07:40:30;3.70;76.80
63017;DHT22;50274;45.640;11.756;2022-12-18T07:42:56;3.80;76.80
63017;DHT22;50274;45.640;11.756;2022-12-18T07:45:22;3.70;76.80
63017;DHT22;50274;45.640;11.756;2022-12-18T07:47:47;3.80;76.90
63017;DHT22;50274;45.640;11.756;2022-12-18T07:50:13;3.80;76.90
63017;DHT22;50274;45.640;11.756;2022-12-18T07:52:39;3.90;76.90
63017;DHT22;50274;45.640;11.756;2022-12-18T07:55:05;3.90;76.90
63017;DHT22;50274;45.640;11.756;2022-12-18T07:57:31;3.90;76.90
63017;DHT22;50274;45.640;11.756;2022-12-18T07:59:57;4.00;76.90
63017;DHT22;50274;45.640;11.756;2022-12-18T08:02:23;4.00;77.00
63017;DHT22;50274;45.640;11.756;2022-12-18T08:04:48;4.00;76.90
63017;DHT22;50274;45.640;11.756;2022-12-18T08:07:14;4.10;76.90
63017;DHT22;50274;45.640;11.756;2022-12-18T08:09:40;4.10;77.10
63017;DHT22;50274;45.640;11.756;2022-12-18T08:12:06;4.10;77.20
63017;DHT22;50274;45.640;11.756;2022-12-18T08:14:32;4.20;77.20
63017;DHT22;50274;45.640;11.756;2022-12-18T08:16:58;4.30;77.10
63017;DHT22;50274;45.640;11.756;2022-12-18T08:19:24;4.30;77.20
63017;DHT22;50274;45.640;11.756;2022-12-18T08:21:50;4.40;77.30
63017;DHT22;50274;45.640;11.756;2022-12-18T08:24:15;4.50;77.20
63017;DHT22;50274;45.640;11.756;2022-12-18T08:26:41;4.50;77.40
63017;DHT22;50274;45.640;11.756;2022-12-18T08:29:09;4.70;77.40
63017;DHT22;50274;45.640;11.756;2022-12-18T08:31:35;4.70;77.20
63017;DHT22;50274;45.640;11.756;2022-12-18T08:34:01;4.80;77.10
63017;DHT22;50274;45.640;11.756;2022-12-18T08:36:27;4.90;77.10
63017;DHT22;50274;45.640;11.756;2022-12-18T08:38:53;5.00;77.10
63017;DHT22;50274;45.640;11.756;2022-12-18T08:41:20;5.10;77.10
63017;DHT22;50274;45.640;11.756;2022-12-18T08:43:46;5.30;77.00
63017;DHT22;50274;45.640;11.756;2022-12-18T08:46:34;5.30;77.00
63017;DHT22;50274;45.640;11.756;2022-12-18T08:49:01;5.50;76.70
63017;DHT22;50274;45.640;11.756;2022-12-18T08:51:27;5.60;76.80
63017;DHT22;50274;45.640;11.756;2022-12-18T08:53:53;5.70;76.70
63017;DHT22;50274;45.640;11.756;2022-12-18T08:56:19;5.80;76.70
63017;DHT22;50274;45.640;11.756;2022-12-18T08:58:44;5.90;76.70
63017;DHT22;50274;45.640;11.756;2022-12-18T09:01:12;6.00;76.50
63017;DHT22;50274;45.640;11.756;2022-12-18T09:03:39;6.10;76.30
63017;DHT22;50274;45.640;11.756;2022-12-18T09:06:05;6.30;76.20
63017;DHT22;50274;45.640;11.756;2022-12-18T09:08:35;6.50;75.90
63017;DHT22;50274;45.640;11.756;2022-12-18T09:11:02;6.60;75.60
63017;DHT22;50274;45.640;11.756;2022-12-18T09:13:28;6.70;75.40
63017;DHT22;50274;45.640;11.756;2022-12-18T09:15:54;6.80;75.20
63017;DHT22;50274;45.640;11.756;2022-12-18T09:18:22;7.00;74.90
63017;DHT22;50274;45.640;11.756;2022-12-18T09:20:49;7.10;74.70
63017;DHT22;50274;45.640;11.756;2022-12-18T09:23:17;7.20;74.40
63017;DHT22;50274;45.640;11.756;2022-12-18T09:25:43;7.30;74.40
63017;DHT22;50274;45.640;11.756;2022-12-18T09:28:14;7.40;74.10
63017;DHT22;50274;45.640;11.756;2022-12-18T09:30:43;7.40;74.00
63017;DHT22;50274;45.640;11.756;2022-12-18T09:33:11;7.50;73.60
63017;DHT22;50274;45.640;11.756;2022-12-18T09:35:40;7.60;73.50
63017;DHT22;50274;45.640;11.756;2022-12-18T09:38:07;7.70;73.40
63017;DHT22;50274;45.640;11.756;2022-12-18T09:40:39;7.80;73.10
63017;DHT22;50274;45.640;11.756;2022-12-18T09:43:09;7.80;72.50
63017;DHT22;50274;45.640;11.756;2022-12-18T09:45:44;7.80;72.50
63017;DHT22;50274;45.640;11.756;2022-12-18T09:48:51;7.70;72.00
63017;DHT22;50274;45.640;11.756;2022-12-18T09:51:17;7.80;71.70
63017;DHT22;50274;45.640;11.756;2022-12-18T09:53:52;7.90;71.10
63017;DHT22;50274;45.640;11.756;2022-12-18T09:56:20;7.90;71.20
63017;DHT22;50274;45.640;11.756;2022-12-18T09:58:59;8.00;71.40
63017;DHT22;50274;45.640;11.756;2022-12-18T10:01:26;8.10;71.40
63017;DHT22;50274;45.640;11.756;2022-12-18T10:03:53;8.30;71.30
63017;DHT22;50274;45.640;11.756;2022-12-18T10:17:26;9.30;67.70
63017;DHT22;50274;45.640;11.756;2022-12-18T10:20:09;9.50;67.40
63017;DHT22;50274;45.640;11.756;2022-12-18T10:25:15;9.90;66.00
63017;DHT22;50274;45.640;11.756;2022-12-18T10:27:42;10.00;65.30
63017;DHT22;50274;45.640;11.756;2022-12-18T10:30:19;10.20;64.90
63017;DHT22;50274;45.640;11.756;2022-12-18T10:32:46;10.30;64.20
63017;DHT22;50274;45.640;11.756;2022-12-18T10:35:19;10.50;64.00
63017;DHT22;50274;45.640;11.756;2022-12-18T10:40:57;10.90;61.80
63017;DHT22;50274;45.640;11.756;2022-12-18T10:43:38;11.00;62.60
63017;DHT22;50274;45.640;11.756;2022-12-18T10:51:07;11.60;60.90
63017;DHT22;50274;45.640;11.756;2022-12-18T10:53:35;11.70;61.00
63017;DHT22;50274;45.640;11.756;2022-12-18T10:56:05;11.90;60.00
63017;DHT22;50274;45.640;11.756;2022-12-18T10:58:37;12.00;59.30
63017;DHT22;50274;45.640;11.756;2022-12-18T11:01:07;12.10;58.90
63017;DHT22;50274;45.640;11.756;2022-12-18T11:03:38;12.30;58.20
63017;DHT22;50274;45.640;11.756;2022-12-18T11:06:08;12.50;57.90
63017;DHT22;50274;45.640;11.756;2022-12-18T11:08:35;12.60;56.80
63017;DHT22;50274;45.640;11.756;2022-12-18T11:11:01;12.70;56.30
63017;DHT22;50274;45.640;11.756;2022-12-18T11:13:29;12.90;56.10
63017;DHT22;50274;45.640;11.756;2022-12-18T11:15:56;13.00;56.10
63017;DHT22;50274;45.640;11.756;2022-12-18T11:21:07;13.20;54.10
63017;DHT22;50274;45.640;11.756;2022-12-18T11:23:35;13.30;52.90
63017;DHT22;50274;45.640;11.756;2022-12-18T11:26:03;13.40;52.90
63017;DHT22;50274;45.640;11.756;2022-12-18T11:28:38;13.50;53.20
63017;DHT22;50274;45.640;11.756;2022-12-18T11:33:35;13.80;52.90
63017;DHT22;50274;45.640;11.756;2022-12-18T11:36:03;13.90;52.20
63017;DHT22;50274;45.640;11.756;2022-12-18T11:38:33;14.00;52.00
63017;DHT22;50274;45.640;11.756;2022-12-18T11:44:38;14.10;51.00
63017;DHT22;50274;45.640;11.756;2022-12-18T11:47:37;14.10;51.30
63017;DHT22;50274;45.640;11.756;2022-12-18T11:50:17;14.30;51.30
63017;DHT22;50274;45.640;11.756;2022-12-18T11:52:44;14.20;50.90
63017;DHT22;50274;45.640;11.756;2022-12-18T11:55:15;14.10;49.30
63017;DHT22;50274;45.640;11.756;2022-12-18T11:58:08;14.10;50.20
63017;DHT22;50274;45.640;11.756;2022-12-18T12:00:49;14.20;50.70
63017;DHT22;50274;45.640;11.756;2022-12-18T12:06:31;14.40;50.20
63017;DHT22;50274;45.640;11.756;2022-12-18T12:14:46;14.50;49.40
63017;DHT22;50274;45.640;11.756;2022-12-18T12:17:42;14.60;49.20
63017;DHT22;50274;45.640;11.756;2022-12-18T12:20:25;14.60;48.70
63017;DHT22;50274;45.640;11.756;2022-12-18T12:26:07;14.80;48.90
63017;DHT22;50274;45.640;11.756;2022-12-18T12:28:44;14.90;48.20
63017;DHT22;50274;45.640;11.756;2022-12-18T12:39:33;15.00;48.00
63017;DHT22;50274;45.640;11.756;2022-12-18T12:42:01;15.00;47.20
63017;DHT22;50274;45.640;11.756;2022-12-18T12:44:52;14.90;46.50
63017;DHT22;50274;45.640;11.756;2022-12-18T12:47:38;14.90;46.50
63017;DHT22;50274;45.640;11.756;2022-12-18T12:50:16;14.80;46.90
63017;DHT22;50274;45.640;11.756;2022-12-18T12:52:52;14.70;46.20
63017;DHT22;50274;45.640;11.756;2022-12-18T12:55:25;14.60;46.40
63017;DHT22;50274;45.640;11.756;2022-12-18T12:58:36;14.50;45.80
63017;DHT22;50274;45.640;11.756;2022-12-18T13:01:08;14.40;45.80
63017;DHT22;50274;45.640;11.756;2022-12-18T13:03:47;14.50;46.50
63017;DHT22;50274;45.640;11.756;2022-12-18T13:08:56;14.40;45.80
63017;DHT22;50274;45.640;11.756;2022-12-18T13:11:51;14.30;46.50
63017;DHT22;50274;45.640;11.756;2022-12-18T13:14:37;14.20;46.90
63017;DHT22;50274;45.640;11.756;2022-12-18T13:20:03;14.10;46.80
63017;DHT22;50274;45.640;11.756;2022-12-18T13:22:38;14.00;46.90
63017;DHT22;50274;45.640;11.756;2022-12-18T13:25:28;14.00;47.60
63017;DHT22;50274;45.640;11.756;2022-12-18T13:35:42;13.80;48.70
63017;DHT22;50274;45.640;11.756;2022-12-18T13:38:42;13.70;49.00
63017;DHT22;50274;45.640;11.756;2022-12-18T13:43:46;13.60;49.40
63017;DHT22;50274;45.640;11.756;2022-12-18T13:46:29;13.50;48.80
63017;DHT22;50274;45.640;11.756;2022-12-18T13:49:02;13.40;48.80
63017;DHT22;50274;45.640;11.756;2022-12-18T13:51:32;13.30;48.90
63017;DHT22;50274;45.640;11.756;2022-12-18T13:54:01;13.10;48.90
63017;DHT22;50274;45.640;11.756;2022-12-18T13:56:32;13.00;49.10
63017;DHT22;50274;45.640;11.756;2022-12-18T13:59:19;12.90;49.60
63017;DHT22;50274;45.640;11.756;2022-12-18T14:01:55;12.80;50.10
63017;DHT22;50274;45.640;11.756;2022-12-18T14:04:29;12.60;49.50
63017;DHT22;50274;45.640;11.756;2022-12-18T14:06:58;12.50;49.50
63017;DHT22;50274;45.640;11.756;2022-12-18T14:09:31;12.30;49.60
63017;DHT22;50274;45.640;11.756;2022-12-18T14:12:00;12.20;49.40
63017;DHT22;50274;45.640;11.756;2022-12-18T14:14:47;12.00;49.50
63017;DHT22;50274;45.640;11.756;2022-12-18T14:17:14;12.00;50.00
63017;DHT22;50274;45.640;11.756;2022-12-18T14:19:45;11.80;50.60
63017;DHT22;50274;45.640;11.756;2022-12-18T14:22:16;11.70;51.00
63017;DHT22;50274;45.640;11.756;2022-12-18T14:24:42;11.50;51.40
63017;DHT22;50274;45.640;11.756;2022-12-18T14:27:23;11.50;51.80
63017;DHT22;50274;45.640;11.756;2022-12-18T14:29:49;11.30;52.20
63017;DHT22;50274;45.640;11.756;2022-12-18T14:32:19;11.20;52.60
63017;DHT22;50274;45.640;11.756;2022-12-18T14:37:14;11.10;53.30
63017;DHT22;50274;45.640;11.756;2022-12-18T14:39:40;11.00;53.50
63017;DHT22;50274;45.640;11.756;2022-12-18T14:42:10;10.90;53.60
63017;DHT22;50274;45.640;11.756;2022-12-18T14:44:36;10.80;54.00
63017;DHT22;50274;45.640;11.756;2022-12-18T14:47:02;10.70;54.20
63017;DHT22;50274;45.640;11.756;2022-12-18T14:49:33;10.60;54.50
63017;DHT22;50274;45.640;11.756;2022-12-18T14:52:13;10.60;54.80
63017;DHT22;50274;45.640;11.756;2022-12-18T14:54:46;10.50;54.90
63017;DHT22;50274;45.640;11.756;2022-12-18T14:57:24;10.40;55.00
63017;DHT22;50274;45.640;11.756;2022-12-18T14:59:52;10.30;55.30
63017;DHT22;50274;45.640;11.756;2022-12-18T15:02:25;10.30;55.50
63017;DHT22;50274;45.640;11.756;2022-12-18T15:05:04;10.20;55.90
63017;DHT22;50274;45.640;11.756;2022-12-18T15:07:44;10.20;56.20
63017;DHT22;50274;45.640;11.756;2022-12-18T15:10:12;10.10;56.40
63017;DHT22;50274;45.640;11.756;2022-12-18T15:12:49;10.10;56.60
63017;DHT22;50274;45.640;11.756;2022-12-18T15:20:46;9.90;57.20
63017;DHT22;50274;45.640;11.756;2022-12-18T15:26:00;9.70;57.70
63017;DHT22;50274;45.640;11.756;2022-12-18T15:33:45;9.50;58.40
63017;DHT22;50274;45.640;11.756;2022-12-18T15:36:28;9.30;58.60
63017;DHT22;50274;45.640;11.756;2022-12-18T15:38:57;9.20;59.00
63017;DHT22;50274;45.640;11.756;2022-12-18T15:41:23;9.20;59.30
63017;DHT22;50274;45.640;11.756;2022-12-18T15:43:51;9.00;59.50
63017;DHT22;50274;45.640;11.756;2022-12-18T15:46:23;9.00;59.80
63017;DHT22;50274;45.640;11.756;2022-12-18T15:48:51;8.90;60.10
63017;DHT22;50274;45.640;11.756;2022-12-18T15:51:23;8.90;60.30
63017;DHT22;50274;45.640;11.756;2022-12-18T15:53:51;8.70;60.60
63017;DHT22;50274;45.640;11.756;2022-12-18T15:56:19;8.70;60.80
63017;DHT22;50274;45.640;11.756;2022-12-18T15:59:13;8.60;61.00
63017;DHT22;50274;45.640;11.756;2022-12-18T16:01:41;8.50;61.20
63017;DHT22;50274;45.640;11.756;2022-12-18T16:04:12;8.40;61.40
63017;DHT22;50274;45.640;11.756;2022-12-18T16:06:39;8.40;61.60
63017;DHT22;50274;45.640;11.756;2022-12-18T16:09:05;8.30;61.80
63017;DHT22;50274;45.640;11.756;2022-12-18T16:11:33;8.30;61.90
63017;DHT22;50274;45.640;11.756;2022-12-18T16:14:29;8.20;62.10
63017;DHT22;50274;45.640;11.756;2022-12-18T16:16:57;8.10;62.20
63017;DHT22;50274;45.640;11.756;2022-12-18T16:19:24;8.10;62.40
63017;DHT22;50274;45.640;11.756;2022-12-18T16:21:55;8.00;62.50
63017;DHT22;50274;45.640;11.756;2022-12-18T16:24:32;7.90;62.80
63017;DHT22;50274;45.640;11.756;2022-12-18T16:26:59;7.90;63.00
63017;DHT22;50274;45.640;11.756;2022-12-18T16:29:26;7.80;63.10
63017;DHT22;50274;45.640;11.756;2022-12-18T16:31:57;7.80;63.30
63017;DHT22;50274;45.640;11.756;2022-12-18T16:34:31;7.70;63.50
63017;DHT22;50274;45.640;11.756;2022-12-18T16:37:03;7.70;63.60
63017;DHT22;50274;45.640;11.756;2022-12-18T16:39:29;7.60;63.70
63017;DHT22;50274;45.640;11.756;2022-12-18T16:41:56;7.50;63.90
63017;DHT22;50274;45.640;11.756;2022-12-18T16:44:22;7.50;64.00
63017;DHT22;50274;45.640;11.756;2022-12-18T16:46:48;7.50;64.20
63017;DHT22;50274;45.640;11.756;2022-12-18T16:49:16;7.40;64.30
63017;DHT22;50274;45.640;11.756;2022-12-18T16:51:42;7.30;64.50
63017;DHT22;50274;45.640;11.756;2022-12-18T16:54:09;7.30;64.50
63017;DHT22;50274;45.640;11.756;2022-12-18T16:56:35;7.20;64.60
63017;DHT22;50274;45.640;11.756;2022-12-18T16:59:01;7.20;64.70
63017;DHT22;50274;45.640;11.756;2022-12-18T17:01:29;7.20;64.90
63017;DHT22;50274;45.640;11.756;2022-12-18T17:03:58;7.10;65.00
63017;DHT22;50274;45.640;11.756;2022-12-18T17:06:25;7.10;65.00
63017;DHT22;50274;45.640;11.756;2022-12-18T17:08:56;7.00;65.20
63017;DHT22;50274;45.640;11.756;2022-12-18T17:11:24;7.00;65.30
63017;DHT22;50274;45.640;11.756;2022-12-18T17:13:50;7.00;65.30
63017;DHT22;50274;45.640;11.756;2022-12-18T17:16:16;6.90;65.40
63017;DHT22;50274;45.640;11.756;2022-12-18T17:18:42;6.90;65.40
63017;DHT22;50274;45.640;11.756;2022-12-18T17:21:09;6.80;65.50
63017;DHT22;50274;45.640;11.756;2022-12-18T17:23:36;6.80;65.60